createdAt,value
2018-07-16T00:00:26.561Z,10.73
2018-07-16T00:02:56.967Z,9.47
2018-07-16T00:05:29.368Z,10.10
2018-07-16T00:07:57.985Z,8.50
2018-07-16T00:10:26.669Z,9.73
2018-07-16T00:12:55.144Z,9.93
2018-07-16T00:15:23.887Z,8.90
2018-07-16T00:17:52.473Z,9.00
2018-07-16T00:20:21.958Z,9.30
2018-07-16T00:22:50.601Z,15.77
2018-07-16T00:25:19.222Z,11.27
2018-07-16T00:27:47.785Z,8.70
2018-07-16T00:30:16.436Z,9.87
2018-07-16T00:32:45.046Z,10.07
2018-07-16T00:35:13.967Z,9.60
2018-07-16T00:37:42.478Z,8.93
2018-07-16T00:40:11.035Z,8.20
2018-07-16T00:42:40.192Z,9.13
2018-07-16T00:45:08.922Z,8.63
2018-07-16T00:47:37.658Z,9.97
2018-07-16T00:50:06.326Z,9.53
2018-07-16T00:52:35.126Z,10.27
2018-07-16T00:55:03.755Z,9.83
2018-07-16T00:57:34.291Z,9.33
2018-07-16T01:00:06.159Z,9.87
2018-07-16T01:02:35.130Z,9.33
2018-07-16T01:05:03.760Z,10.07
2018-07-16T01:07:32.486Z,10.90
2018-07-16T01:10:03.138Z,10.27
2018-07-16T01:12:31.865Z,10.63
2018-07-16T01:15:00.683Z,10.93
2018-07-16T01:17:29.639Z,10.87
2018-07-16T01:19:58.599Z,11.70
2018-07-16T01:22:29.209Z,11.37
2018-07-16T01:24:57.871Z,11.27
2018-07-16T01:27:26.421Z,10.97
2018-07-16T01:29:55.028Z,11.13
2018-07-16T01:32:23.941Z,11.30
2018-07-16T01:34:53.107Z,10.93
2018-07-16T01:37:21.748Z,10.67
2018-07-16T01:39:50.390Z,11.50
2018-07-16T01:42:18.978Z,12.03
2018-07-16T01:44:47.642Z,11.23
2018-07-16T01:47:16.187Z,12.00
2018-07-16T01:49:44.818Z,11.93
2018-07-16T01:52:13.384Z,11.13
2018-07-16T01:54:43.069Z,11.90
2018-07-16T01:57:11.578Z,11.07
2018-07-16T01:59:40.238Z,10.40
2018-07-16T02:02:08.820Z,10.87
2018-07-16T02:04:37.562Z,10.50
2018-07-16T02:07:06.194Z,9.90
2018-07-16T02:09:34.936Z,10.47
2018-07-16T02:12:03.581Z,11.10
2018-07-16T02:14:32.112Z,11.90
2018-07-16T02:17:00.825Z,11.57
2018-07-16T02:19:29.473Z,12.90
2018-07-16T02:21:58.382Z,11.97
2018-07-16T02:24:26.912Z,11.53
2018-07-16T02:26:55.558Z,11.70
2018-07-16T02:29:24.315Z,12.63
2018-07-16T02:31:52.857Z,12.03
2018-07-16T02:34:21.388Z,11.10
2018-07-16T02:36:49.873Z,10.97
2018-07-16T02:39:18.413Z,9.50
2018-07-16T02:41:47.090Z,9.73
2018-07-16T02:44:15.603Z,10.00
2018-07-16T02:46:44.096Z,9.43
2018-07-16T02:49:12.746Z,10.80
2018-07-16T02:51:41.287Z,11.37
2018-07-16T02:54:09.859Z,11.33
2018-07-16T02:56:38.564Z,11.90
2018-07-16T02:59:07.105Z,12.40
2018-07-16T03:01:35.723Z,12.50
2018-07-16T03:04:04.289Z,12.00
2018-07-16T03:06:32.969Z,10.63
2018-07-16T03:09:01.579Z,11.70
2018-07-16T03:11:30.159Z,12.57
2018-07-16T03:13:58.812Z,12.47
2018-07-16T03:16:27.574Z,13.67
2018-07-16T03:18:56.367Z,13.77
2018-07-16T03:21:25.208Z,13.90
2018-07-16T03:23:53.794Z,14.37
2018-07-16T03:26:22.454Z,13.00
2018-07-16T03:28:51.031Z,13.97
2018-07-16T03:31:19.484Z,13.27
2018-07-16T03:33:48.222Z,13.30
2018-07-16T03:36:16.890Z,12.50
2018-07-16T03:38:45.460Z,11.53
2018-07-16T03:41:14.092Z,11.13
2018-07-16T03:43:42.709Z,11.67
2018-07-16T03:46:11.290Z,9.90
2018-07-16T03:48:40.195Z,10.30
2018-07-16T03:51:08.783Z,10.13
2018-07-16T03:53:37.297Z,10.73
2018-07-16T03:56:05.885Z,10.67
2018-07-16T03:58:34.519Z,11.30
2018-07-16T04:01:03.113Z,11.70
2018-07-16T04:03:31.833Z,11.67
2018-07-16T04:06:00.431Z,12.13
2018-07-16T04:08:28.900Z,12.40
2018-07-16T04:10:57.402Z,12.03
2018-07-16T04:13:25.982Z,11.40
2018-07-16T04:15:54.476Z,11.93
2018-07-16T04:18:23.006Z,11.53
2018-07-16T04:20:51.526Z,10.73
2018-07-16T04:23:20.166Z,11.53
2018-07-16T04:25:48.726Z,10.93
2018-07-16T04:28:17.259Z,13.60
2018-07-16T04:30:45.796Z,12.17
2018-07-16T04:33:14.320Z,12.77
2018-07-16T04:35:42.883Z,13.40
2018-07-16T04:38:11.452Z,12.27
2018-07-16T04:40:40.000Z,11.77
2018-07-16T04:43:08.718Z,11.30
2018-07-16T04:45:37.216Z,12.43
2018-07-16T04:48:05.784Z,12.73
2018-07-16T04:50:34.321Z,11.50
2018-07-16T04:53:03.722Z,10.77
2018-07-16T04:55:32.248Z,11.33
2018-07-16T04:58:00.794Z,10.57
2018-07-16T05:00:29.730Z,9.83
2018-07-16T05:02:58.524Z,9.73
2018-07-16T05:05:27.032Z,9.37
2018-07-16T05:12:05.893Z,8.97
2018-07-16T05:14:34.420Z,9.27
2018-07-16T05:17:02.842Z,9.57
2018-07-16T05:19:31.399Z,10.37
2018-07-16T05:21:59.893Z,10.37
2018-07-16T05:24:28.360Z,10.23
2018-07-16T05:26:56.809Z,9.90
2018-07-16T05:29:25.239Z,9.33
2018-07-16T05:31:53.929Z,10.10
2018-07-16T05:34:22.203Z,9.30
2018-07-16T05:36:50.945Z,9.70
2018-07-16T05:39:19.456Z,9.30
2018-07-16T05:41:48.034Z,9.03
2018-07-16T05:44:16.817Z,8.43
2018-07-16T05:46:45.383Z,8.57
2018-07-16T05:49:13.969Z,8.87
2018-07-16T05:51:42.566Z,8.73
2018-07-16T05:54:11.090Z,8.43
2018-07-16T05:56:39.614Z,7.90
2018-07-16T05:59:08.303Z,8.03
2018-07-16T06:01:37.289Z,8.70
2018-07-16T06:04:10.182Z,7.87
2018-07-16T06:06:45.938Z,7.73
2018-07-16T06:09:14.715Z,8.77
2018-07-16T06:11:43.404Z,8.10
2018-07-16T06:14:12.125Z,8.20
2018-07-16T06:31:24.393Z,7.30
2018-07-16T06:33:53.320Z,7.53
2018-07-16T06:50:45.594Z,6.10
2018-07-16T06:59:06.404Z,7.30
2018-07-16T07:14:17.690Z,6.15
2018-07-16T07:30:01.202Z,6.58
2018-07-16T07:32:55.554Z,5.78
2018-07-16T07:38:13.513Z,5.95
2018-07-16T07:44:41.480Z,5.47
2018-07-16T07:54:14.901Z,4.78
2018-07-16T07:56:53.996Z,5.15
2018-07-16T08:05:08.302Z,5.08
2018-07-16T08:07:36.918Z,5.35
2018-07-16T08:10:05.420Z,5.12
2018-07-16T08:12:33.964Z,5.20
2018-07-16T08:15:02.554Z,4.92
2018-07-16T08:17:32.221Z,5.22
2018-07-16T08:20:00.766Z,4.37
2018-07-16T08:22:29.292Z,5.37
2018-07-16T08:24:57.888Z,4.25
2018-07-16T08:27:26.460Z,4.22
2018-07-16T08:29:55.023Z,4.70
2018-07-16T08:32:23.677Z,4.00
2018-07-16T08:34:52.152Z,4.45
2018-07-16T08:37:20.716Z,5.17
2018-07-16T08:39:49.285Z,4.55
2018-07-16T08:42:17.852Z,4.20
2018-07-16T08:44:46.444Z,4.03
2018-07-16T08:47:15.045Z,4.90
2018-07-16T08:58:09.790Z,4.03
2018-07-16T09:08:51.494Z,4.35
2018-07-16T09:12:31.650Z,4.08
2018-07-16T09:15:00.586Z,4.83
2018-07-16T09:17:39.048Z,4.37
2018-07-16T09:30:29.547Z,3.37
2018-07-16T09:53:30.485Z,3.77
2018-07-16T09:57:11.249Z,3.70
2018-07-16T10:06:07.521Z,3.47
2018-07-16T10:08:40.934Z,3.65
2018-07-16T10:11:10.543Z,3.47
2018-07-16T10:13:51.034Z,3.45
2018-07-16T10:17:32.120Z,3.75
2018-07-16T10:20:25.888Z,3.50
2018-07-16T12:01:34.126Z,3.67
2018-07-16T12:04:02.895Z,3.92
2018-07-16T12:06:32.940Z,4.08
2018-07-16T12:09:01.546Z,3.87
2018-07-16T12:11:30.416Z,3.58
2018-07-16T12:13:59.258Z,4.22
2018-07-16T12:16:27.996Z,3.67
2018-07-16T12:18:56.982Z,3.80
2018-07-16T12:21:25.687Z,3.83
2018-07-16T12:23:54.368Z,3.80
2018-07-16T12:26:22.975Z,4.08
2018-07-16T12:28:51.849Z,4.08
2018-07-16T13:41:48.679Z,4.20
2018-07-16T13:44:17.732Z,4.10
2018-07-16T13:46:46.577Z,3.77
2018-07-16T13:49:15.540Z,3.75
2018-07-16T13:51:44.129Z,3.87
2018-07-16T13:54:12.646Z,4.37
2018-07-16T13:56:41.212Z,4.83
2018-07-16T13:59:10.592Z,4.00
2018-07-16T14:01:39.127Z,4.45
2018-07-16T14:04:08.177Z,4.17
2018-07-16T14:06:36.735Z,4.20
2018-07-16T14:09:07.280Z,4.03
2018-07-16T14:11:36.258Z,4.28
2018-07-16T14:14:06.207Z,3.52
2018-07-16T14:16:34.755Z,4.22
2018-07-16T14:19:08.326Z,4.08
2018-07-16T14:21:37.164Z,3.80
2018-07-16T14:24:06.112Z,3.60
2018-07-16T14:26:34.444Z,3.50
2018-07-16T14:29:02.933Z,3.62
2018-07-16T14:31:31.516Z,3.70
2018-07-16T14:34:00.008Z,3.65
2018-07-16T14:36:29.025Z,3.77
2018-07-16T14:38:57.492Z,3.70
2018-07-16T14:41:26.172Z,3.30
2018-07-16T14:43:54.628Z,4.03
2018-07-16T14:46:23.476Z,4.15
2018-07-16T14:48:52.135Z,3.52
2018-07-16T14:51:20.819Z,3.95
2018-07-16T14:53:49.321Z,3.62
2018-07-16T14:56:17.491Z,3.83
2018-07-16T14:58:46.076Z,3.22
2018-07-16T15:01:15.683Z,3.52
2018-07-16T15:03:44.193Z,3.75
2018-07-16T15:06:12.825Z,3.20
2018-07-16T15:08:41.781Z,3.90
2018-07-16T15:11:10.300Z,3.90
2018-07-16T15:13:38.614Z,3.60
2018-07-16T15:16:07.275Z,3.60
2018-07-16T15:18:35.850Z,3.52
2018-07-16T15:21:04.583Z,3.40
2018-07-16T15:23:33.009Z,3.12
2018-07-16T15:26:01.323Z,3.20
2018-07-16T15:28:29.840Z,3.58
2018-07-16T15:30:58.434Z,3.05
2018-07-16T15:33:27.053Z,3.25
2018-07-16T15:35:55.702Z,3.05
2018-07-16T15:38:24.325Z,3.10
2018-07-16T15:40:52.922Z,3.08
2018-07-16T15:43:21.530Z,2.70
2018-07-16T15:45:50.063Z,2.95
2018-07-16T15:48:18.723Z,3.27
2018-07-16T15:50:47.206Z,3.02
2018-07-16T15:53:16.232Z,3.37
2018-07-16T15:55:44.805Z,3.45
2018-07-16T15:58:13.348Z,3.20
2018-07-16T16:00:42.086Z,3.20
2018-07-16T16:03:10.726Z,4.08
2018-07-16T16:05:39.160Z,3.37
2018-07-16T16:08:07.704Z,3.47
2018-07-16T16:10:36.210Z,3.87
2018-07-16T16:13:04.781Z,3.08
2018-07-16T16:15:33.307Z,3.50
2018-07-16T16:18:02.228Z,3.37
2018-07-16T16:20:30.664Z,3.40
2018-07-16T16:22:59.193Z,3.50
2018-07-16T16:25:27.753Z,3.40
2018-07-16T16:27:56.465Z,3.35
2018-07-16T16:30:25.439Z,3.50
2018-07-16T16:32:53.996Z,3.58
2018-07-16T16:35:22.564Z,3.37
2018-07-16T16:37:51.414Z,3.67
2018-07-16T16:40:20.012Z,3.75
2018-07-16T16:42:53.372Z,3.67
2018-07-16T16:45:22.076Z,3.40
2018-07-16T16:47:50.340Z,3.87
2018-07-16T16:50:18.830Z,4.00
2018-07-16T16:52:47.130Z,4.00
2018-07-16T16:55:15.680Z,3.80
2018-07-16T16:57:44.415Z,3.58
2018-07-16T17:00:12.986Z,3.30
2018-07-16T17:02:41.464Z,3.40
2018-07-16T17:05:10.062Z,3.17
2018-07-16T17:07:38.528Z,3.20
2018-07-16T17:10:07.128Z,2.90
2018-07-16T17:12:35.588Z,3.20
2018-07-16T17:15:04.884Z,3.62
2018-07-16T17:17:33.874Z,2.92
2018-07-16T17:20:02.395Z,3.58
2018-07-16T17:22:30.893Z,3.20
2018-07-16T17:24:59.559Z,3.35
2018-07-16T17:27:28.053Z,3.15
2018-07-16T17:29:56.584Z,3.05
2018-07-16T17:32:25.160Z,3.22
2018-07-16T17:34:54.105Z,3.20
2018-07-16T17:37:22.602Z,3.22
2018-07-16T17:39:51.132Z,3.45
2018-07-16T17:42:19.706Z,3.45
2018-07-16T17:44:48.352Z,3.58
2018-07-16T17:47:16.836Z,3.52
2018-07-16T17:49:45.483Z,3.70
2018-07-16T17:52:14.063Z,3.62
2018-07-16T17:54:42.761Z,3.83
2018-07-16T17:57:11.304Z,4.03
2018-07-16T17:59:39.954Z,3.22
2018-07-16T18:02:08.509Z,3.95
2018-07-16T18:04:37.020Z,4.20
2018-07-16T18:07:05.632Z,4.78
2018-07-16T18:09:34.224Z,4.25
2018-07-16T18:12:02.727Z,3.50
2018-07-16T18:14:31.311Z,3.55
2018-07-16T18:16:59.971Z,3.52
2018-07-16T18:19:28.521Z,3.02
2018-07-16T18:21:57.177Z,3.00
2018-07-16T18:24:25.779Z,3.58
2018-07-16T18:26:54.759Z,3.25
2018-07-16T18:29:24.025Z,3.75
2018-07-16T18:32:06.967Z,3.65
2018-07-16T18:34:40.240Z,3.60
2018-07-16T18:37:13.632Z,4.30
2018-07-16T18:39:42.247Z,4.30
2018-07-16T18:42:10.829Z,4.28
2018-07-16T18:44:39.690Z,4.28
2018-07-16T18:47:08.292Z,3.87
2018-07-16T18:49:36.825Z,3.52
2018-07-16T18:52:05.485Z,3.60
2018-07-16T18:54:34.230Z,3.67
2018-07-16T18:57:02.747Z,3.35
2018-07-16T18:59:31.379Z,3.70
2018-07-16T19:02:00.298Z,3.70
2018-07-16T19:04:28.912Z,3.12
2018-07-16T19:07:03.350Z,3.62
2018-07-16T19:09:32.397Z,3.80
2018-07-16T19:12:00.967Z,3.20
2018-07-16T19:14:30.033Z,3.05
2018-07-16T19:16:58.954Z,3.98
2018-07-16T19:19:27.458Z,3.47
2018-07-16T19:21:56.029Z,3.42
2018-07-16T19:24:28.772Z,3.90
2018-07-16T19:29:44.435Z,4.03
2018-07-16T19:32:13.849Z,4.40
2018-07-16T19:34:42.684Z,4.25
2018-07-16T19:37:11.424Z,3.90
2018-07-16T19:39:40.382Z,3.58
2018-07-16T19:42:18.045Z,3.80
2018-07-16T19:44:46.661Z,3.90
2018-07-16T19:47:16.019Z,3.90
2018-07-16T19:49:44.815Z,4.40
2018-07-16T19:52:13.658Z,4.22
2018-07-16T19:54:42.659Z,3.87
2018-07-16T19:57:11.502Z,3.87
2018-07-16T19:59:40.379Z,4.22
2018-07-16T20:02:09.204Z,3.45
2018-07-16T20:04:42.405Z,3.87
2018-07-16T20:07:11.399Z,4.10
2018-07-16T20:09:40.220Z,4.08
2018-07-16T20:12:09.071Z,4.70
2018-07-16T20:14:37.845Z,4.35
2018-07-16T20:17:06.688Z,4.55
2018-07-16T20:19:36.802Z,4.70
2018-07-16T20:22:05.590Z,4.83
2018-07-16T20:24:34.487Z,4.17
2018-07-16T20:27:03.414Z,3.90
2018-07-16T20:29:32.265Z,3.95
2018-07-16T20:32:01.005Z,4.42
2018-07-16T20:34:30.050Z,4.17
2018-07-16T20:36:58.957Z,3.70
2018-07-16T20:39:27.717Z,4.30
2018-07-16T20:41:56.577Z,4.90
2018-07-16T20:44:25.392Z,4.57
2018-07-16T20:46:54.234Z,4.62
2018-07-16T20:49:22.929Z,5.03
2018-07-16T20:51:51.577Z,4.67
2018-07-16T20:54:20.147Z,4.37
2018-07-16T20:56:48.870Z,4.40
2018-07-16T20:59:17.453Z,4.80
2018-07-16T21:01:46.586Z,4.10
2018-07-16T21:04:15.785Z,4.47
2018-07-16T21:06:44.615Z,3.80
2018-07-16T21:09:13.306Z,3.90
2018-07-16T21:11:42.076Z,3.97
2018-07-16T21:14:11.356Z,4.40
2018-07-16T21:16:40.268Z,4.07
2018-07-16T21:19:09.141Z,3.90
2018-07-16T21:21:37.932Z,3.80
2018-07-16T21:24:06.888Z,4.00
2018-07-16T21:26:35.823Z,4.23
2018-07-16T21:29:04.774Z,4.40
2018-07-16T21:31:33.170Z,4.00
2018-07-16T21:34:02.080Z,4.53
2018-07-16T21:36:30.813Z,4.53
2018-07-16T21:38:59.794Z,4.97
2018-07-16T21:41:28.552Z,4.57
2018-07-16T21:43:57.319Z,4.83
2018-07-16T21:46:26.132Z,5.03
2018-07-16T21:48:54.913Z,4.90
2018-07-16T21:51:24.297Z,5.07
2018-07-16T21:53:53.414Z,5.07
2018-07-16T21:56:22.652Z,4.80
2018-07-16T21:58:51.018Z,4.60
2018-07-16T22:01:20.214Z,4.67
2018-07-16T22:03:48.920Z,4.53
2018-07-16T22:06:17.873Z,5.20
2018-07-16T22:08:46.681Z,4.97
2018-07-16T22:11:15.645Z,4.80
2018-07-16T22:13:44.456Z,4.50
2018-07-16T22:16:13.319Z,4.80
2018-07-16T22:18:42.094Z,4.40
2018-07-16T22:21:10.940Z,4.47
2018-07-16T22:23:39.697Z,4.53
2018-07-16T22:26:08.428Z,4.33
2018-07-16T22:28:37.312Z,5.17
2018-07-16T22:31:06.088Z,4.60
2018-07-16T22:33:35.126Z,4.20
2018-07-16T22:36:04.181Z,4.40
2018-07-16T22:38:33.310Z,4.90
2018-07-16T22:41:02.288Z,4.50
2018-07-16T22:43:31.316Z,4.67
2018-07-16T22:46:00.288Z,4.60
2018-07-16T22:48:29.516Z,5.17
2018-07-16T22:50:59.911Z,4.93
2018-07-16T22:53:29.258Z,4.73
2018-07-16T22:55:58.370Z,5.00
2018-07-16T22:58:27.245Z,6.90
2018-07-16T23:00:56.292Z,6.13
2018-07-16T23:03:25.368Z,6.10
2018-07-16T23:05:54.882Z,5.80
2018-07-16T23:08:24.036Z,5.77
2018-07-16T23:10:57.497Z,5.87
2018-07-16T23:13:27.354Z,5.23
2018-07-16T23:15:56.343Z,4.93
2018-07-16T23:18:25.162Z,4.80
2018-07-16T23:20:54.149Z,4.57
2018-07-16T23:23:23.224Z,5.00
2018-07-16T23:25:52.354Z,5.00
2018-07-16T23:28:21.343Z,5.10
2018-07-16T23:30:50.169Z,4.70
2018-07-16T23:33:19.288Z,4.83
2018-07-16T23:35:48.278Z,4.83
2018-07-16T23:38:17.369Z,5.37
2018-07-16T23:40:46.394Z,5.13
2018-07-16T23:43:15.445Z,4.93
2018-07-16T23:45:44.536Z,6.27
2018-07-16T23:48:13.383Z,7.10
2018-07-16T23:50:42.131Z,6.63
2018-07-16T23:53:10.946Z,6.17
2018-07-16T23:55:39.776Z,6.37
2018-07-16T23:58:08.527Z,6.87
